Columbus Grove, OH

12:38 PM EDT on August 27, 2016 (GMT -0400)
Kalida Local Schools | | Change Station

Elev 725 ft 40.98 °N, 84.20 °W | Updated 8 minutes ago

Mostly Cloudy
Mostly Cloudy
86.7 °F
Feels Like 96 °F
N
4.0
Wind Variable Wind from SSW
Gusts 20.0 mph

Today
High -- | Low -- °F
--% Chance of Precip.
Yesterday
High -- | Low -- °F
Precip. -- in
Pressure 30.12 in
Visibility 10.0 miles
Clouds Mostly Cloudy 4100 ft
Heat Index 96 °F
Dew Point 75 °F
Humidity 69%
Rainfall 0.00 in
Snow Depth Not available.
6:59 AM 8:16 PM
Waning Crescent, 23% visible
METAR KAOH 271553Z AUTO 18006KT 10SM BKN041 29/24 A3014 RMK AO2 SLP198 T02890239
Pressure 30.12 in
Visibility 10.0 miles
Clouds Mostly Cloudy 4100 ft
Heat Index 96 °F
Dew Point 75 °F
Humidity 69%
Rainfall 0.00 in
Snow Depth Not available.
6:59 AM 8:16 PM
Waning Crescent, 23% visible
METAR KAOH 271553Z AUTO 18006KT 10SM BKN041 29/24 A3014 RMK AO2 SLP198 T02890239

10-Day Weather Forecast

Almanac

Astronomy

Aug. 27, 2016 Rise Set
Actual Time
Civil Twilight
Nautical Twilight
Astronomical Twilight
Moon
Length of Visible Light
Length of Day
Tomorrow will be .
, % of the Moon is Illuminated

Today's Extremes

State Highs State Lows

Community

WunderPhotos

Upload Photos

1,935,375 photos uploaded!

WunderBlog® & News

Nearby

Air Quality

  Air Quality AQ Index Pollutant
Not available.

Snow Depth

Station Depth Elevation

Earthquake Activity

City Distance Mag. Time & Date
Minimum magnitude displayed is 2.5.

Coastal Water Temperatures

Place Temperature

Stations

Nearby Weather Stations

Station Location Temp. Windchill Dew Point Humidity Wind Precip. Elev Updated Type
                   

Watches & Warnings

There are currently no watches in effect.